首页
METAR-TAF:

METAR-TAF

机场 :

堪薩斯城, 密蘇里州, 美国

纬度: 39-17-50N, 经度: 094-43-50W, 海拔: 312米

当前天气观测

该预报发布于59分钟前的03:53 UTC
风速10节,风向西北
温度 11°C
湿度 58%
气压 1007 hPa
能見度: 16.1公里
天空无云

METAR: KMCI 190353Z 31010KT 10SM CLR 11/03 A2974 RMK AO2 SLP070 T01060033 $

时间: 22:52 (04:52 UTC)

预报

该预报发布于5小时和28分钟前的23:24 UTC
预报有效从19日的 00点(UTC)到 19日的 24点(UTC)
风速5节,风向西转西南
能見度: 10公里
多云层高于7000英尺
从 19日的 0300点(UTC)
风速9节,风向西转西北
能見度: 10公里
天空无云
从 19日的 1400点(UTC)
风速8节,风向西
能見度: 10公里
散云层高于25000英尺

TAF: KMCI 182324Z 1900/1924 25005KT P6SM BKN070 FM190300 30009KT P6SM SKC FM191400 26008KT P6SM SCT250

超过4000个机场的气象观测和天气预报(METAR&TAF报告)。

可查询的气象台以黄色和红色小点在地图上表示。

将鼠标移到小点上方,可查看气象台名称。

然后点击查看天气观测和预报。

如需切换地图:点击带黑十字的绿色按钮放大地图;点击带横线的绿色按钮缩小地图;或者点击绿色箭头查看邻近地区的地图。


METAR-TAF: